Time;durP1;ratioP1;P1;durP2;ratioP2;P2;SDS_P1;SDS_P2;PMS_P1;PMS_P2;Temp;Humidity;BMP_temperature;BMP_pressure;BME280_temperature;BME280_humidity;BME280_pressure;Samples;Min_cycle;Max_cycle;Signal;HPM_P1;HPM_P2
2022/03/15 00:01:58;;;;;;;6.85;6.20;;;12.40;1.00;;;;;;5033563;28;20045;-80
2022/03/15 00:04:24;;;;;;;7.25;6.53;;;12.00;1.00;;;;;;5033612;28;20026;-80
2022/03/15 00:06:50;;;;;;;7.63;6.93;;;12.10;1.00;;;;;;5032800;28;20068;-79
2022/03/15 00:09:15;;;;;;;7.90;7.20;;;11.90;1.00;;;;;;5032606;28;20067;-80
2022/03/15 00:11:41;;;;;;;7.32;6.38;;;12.10;1.00;;;;;;5033039;28;20139;-79
2022/03/15 00:14:08;;;;;;;7.25;6.60;;;11.90;1.00;;;;;;5032710;28;20033;-79
2022/03/15 00:16:34;;;;;;;7.80;7.00;;;11.90;1.00;;;;;;5033280;28;20049;-78
2022/03/15 00:19:01;;;;;;;8.90;8.00;;;11.90;1.00;;;;;;5033142;28;20493;-79
2022/03/15 00:21:28;;;;;;;7.82;7.10;;;12.20;1.00;;;;;;5032398;28;20056;-79
2022/03/15 00:23:54;;;;;;;8.77;7.70;;;11.80;1.00;;;;;;5032215;28;20521;-79
2022/03/15 00:26:19;;;;;;;8.05;7.35;;;12.10;1.00;;;;;;5032651;28;20103;-79
2022/03/15 00:28:45;;;;;;;8.98;8.07;;;11.80;1.00;;;;;;5033117;28;20025;-79
2022/03/15 00:31:10;;;;;;;10.13;7.13;;;11.80;1.00;;;;;;5032814;28;20152;-79
2022/03/15 00:33:38;;;;;;;8.52;7.68;;;11.90;1.00;;;;;;5032443;28;20039;-79
2022/03/15 00:36:04;;;;;;;9.32;7.88;;;11.90;1.00;;;;;;5032253;28;20105;-80
2022/03/15 00:38:30;;;;;;;7.50;6.80;;;11.90;1.00;;;;;;5032036;28;20064;-79
2022/03/15 00:40:56;;;;;;;8.00;7.20;;;11.90;1.00;;;;;;5032398;28;20032;-80
2022/03/15 00:43:21;;;;;;;7.25;6.55;;;12.00;1.00;;;;;;5032019;28;20027;-79
2022/03/15 00:45:47;;;;;;;7.20;6.50;;;12.10;1.00;;;;;;5031985;28;20440;-79
2022/03/15 00:48:13;;;;;;;7.55;6.85;;;12.10;1.00;;;;;;5015809;28;20021;-79
2022/03/15 00:50:40;;;;;;;7.00;6.40;;;12.00;1.00;;;;;;5032318;28;20029;-79
2022/03/15 00:53:06;;;;;;;7.10;6.40;;;12.00;1.00;;;;;;5031832;28;20047;-79
2022/03/15 00:55:32;;;;;;;7.38;6.53;;;12.00;1.00;;;;;;5032944;28;20116;-79
2022/03/15 00:57:57;;;;;;;6.63;6.03;;;11.90;1.00;;;;;;5031894;28;20057;-78
2022/03/15 01:00:23;;;;;;;6.47;5.88;;;12.00;1.00;;;;;;5031693;28;20044;-79
2022/03/15 01:02:49;;;;;;;6.20;5.57;;;12.00;1.00;;;;;;5031786;28;20029;-80
2022/03/15 01:05:15;;;;;;;6.13;5.32;;;12.10;1.00;;;;;;5031522;28;20014;-79
2022/03/15 01:07:41;;;;;;;5.70;5.20;;;12.10;1.00;;;;;;5032297;28;20044;-79
2022/03/15 01:10:07;;;;;;;6.97;6.28;;;12.10;1.00;;;;;;5031249;28;20022;-80
2022/03/15 01:12:33;;;;;;;5.97;5.43;;;12.10;1.00;;;;;;5032238;28;20037;-79
2022/03/15 01:14:59;;;;;;;6.03;5.38;;;12.50;1.00;;;;;;5031226;28;20057;-79
2022/03/15 01:17:25;;;;;;;7.07;5.32;;;12.20;1.00;;;;;;5031644;28;20169;-80
2022/03/15 01:19:50;;;;;;;7.70;5.55;;;12.20;1.00;;;;;;5032144;28;20366;-79
2022/03/15 01:22:16;;;;;;;5.80;4.82;;;12.10;1.00;;;;;;5030896;28;20095;-79
2022/03/15 01:24:42;;;;;;;6.40;5.72;;;12.10;1.00;;;;;;5031645;28;20429;-79
2022/03/15 01:27:07;;;;;;;6.70;5.75;;;12.10;1.00;;;;;;5031537;28;20052;-79
2022/03/15 01:29:33;;;;;;;6.50;5.68;;;12.20;1.00;;;;;;5031381;28;20036;-79
2022/03/15 01:31:59;;;;;;;7.90;5.68;;;12.10;1.00;;;;;;5031775;28;20026;-80
2022/03/15 01:34:25;;;;;;;6.70;6.00;;;12.10;1.00;;;;;;5031704;28;20045;-79
2022/03/15 01:36:50;;;;;;;6.05;5.38;;;12.00;1.00;;;;;;5031196;28;20068;-79
2022/03/15 01:39:16;;;;;;;6.80;6.10;;;12.00;1.00;;;;;;5031251;28;20025;-80
2022/03/15 01:41:44;;;;;;;7.13;6.43;;;12.00;1.00;;;;;;5031467;28;20430;-80
2022/03/15 01:44:21;;;;;;;6.47;5.53;;;12.40;1.00;;;;;;5031657;28;20037;-79
2022/03/15 01:46:49;;;;;;;6.45;5.60;;;12.00;1.00;;;;;;5027593;28;20036;-79
2022/03/15 01:49:15;;;;;;;7.20;5.78;;;12.10;1.00;;;;;;5031573;28;20063;-79
2022/03/15 01:51:41;;;;;;;7.78;5.97;;;12.30;1.00;;;;;;5031083;28;20021;-79
2022/03/15 01:54:11;;;;;;;6.03;5.40;;;12.00;1.00;;;;;;5031020;28;20041;-80
2022/03/15 01:56:40;;;;;;;6.65;5.82;;;12.10;1.00;;;;;;5026048;28;20067;-79
2022/03/15 01:59:07;;;;;;;8.00;5.93;;;12.40;1.00;;;;;;5031143;28;20033;-80
2022/03/15 02:01:33;;;;;;;7.38;5.93;;;12.30;1.00;;;;;;5031642;28;20375;-80
2022/03/15 02:03:59;;;;;;;7.50;6.28;;;12.20;1.00;;;;;;5030742;28;20021;-79
2022/03/15 02:06:25;;;;;;;9.18;5.78;;;12.20;1.00;;;;;;5031277;28;20029;-80
2022/03/15 02:08:50;;;;;;;8.10;6.10;;;12.40;1.00;;;;;;5030974;28;20079;-79
2022/03/15 02:11:17;;;;;;;8.45;6.03;;;12.20;1.00;;;;;;5030848;28;20036;-79
2022/03/15 02:13:43;;;;;;;7.25;6.20;;;12.20;1.00;;;;;;5014000;28;20041;-77
2022/03/15 02:16:09;;;;;;;9.77;6.28;;;12.20;1.00;;;;;;5031032;28;20076;-79
2022/03/15 02:18:35;;;;;;;6.53;5.90;;;12.20;1.00;;;;;;5030406;28;20038;-80
2022/03/15 02:21:00;;;;;;;7.70;6.07;;;12.20;1.00;;;;;;5031085;28;20026;-79
2022/03/15 02:23:26;;;;;;;9.27;6.10;;;12.20;1.00;;;;;;5030870;28;20052;-80
2022/03/15 02:25:52;;;;;;;6.55;5.55;;;12.30;1.00;;;;;;5031775;28;20022;-80
2022/03/15 02:28:17;;;;;;;7.15;5.78;;;12.30;1.00;;;;;;5030783;28;20029;-80
2022/03/15 02:30:43;;;;;;;7.32;5.57;;;12.40;1.00;;;;;;5030914;28;20108;-79
2022/03/15 02:33:09;;;;;;;7.57;6.13;;;12.20;1.00;;;;;;5030297;28;20088;-79
2022/03/15 02:35:34;;;;;;;6.60;5.85;;;12.30;1.00;;;;;;5030856;28;20025;-79
2022/03/15 02:38:00;;;;;;;6.20;5.32;;;12.20;1.00;;;;;;5030854;28;20025;-79
2022/03/15 02:40:26;;;;;;;8.68;6.00;;;12.20;1.00;;;;;;5031345;28;20021;-79
2022/03/15 02:42:52;;;;;;;7.78;5.55;;;12.20;1.00;;;;;;5030492;28;20028;-79
2022/03/15 02:45:17;;;;;;;7.82;6.45;;;12.10;1.00;;;;;;5030813;28;20029;-79
2022/03/15 02:47:44;;;;;;;6.75;5.47;;;12.10;1.00;;;;;;5030273;28;20402;-79
2022/03/15 02:50:10;;;;;;;6.20;5.18;;;12.20;1.00;;;;;;5030647;28;20033;-79
2022/03/15 02:52:36;;;;;;;6.72;5.28;;;12.30;1.00;;;;;;5031772;28;20450;-79
2022/03/15 02:55:02;;;;;;;6.82;5.38;;;12.20;1.00;;;;;;5030409;28;20065;-79
2022/03/15 02:57:28;;;;;;;6.07;5.38;;;12.20;1.00;;;;;;5014195;28;20090;-80
2022/03/15 02:59:55;;;;;;;6.70;5.45;;;12.20;1.00;;;;;;5030798;28;20440;-78
2022/03/15 03:02:21;;;;;;;6.13;5.15;;;12.10;1.00;;;;;;5030195;28;20057;-78
2022/03/15 03:04:47;;;;;;;8.70;5.60;;;12.20;1.00;;;;;;5031454;28;20234;-79
2022/03/15 03:07:17;;;;;;;7.88;5.40;;;12.00;1.00;;;;;;5030407;28;20026;-80
2022/03/15 03:09:43;;;;;;;7.07;5.68;;;12.00;1.00;;;;;;5033663;28;20765;-80
2022/03/15 03:12:09;;;;;;;8.43;5.55;;;12.00;1.00;;;;;;5033775;28;20536;-79
2022/03/15 03:14:35;;;;;;;7.45;5.50;;;12.00;1.00;;;;;;5034296;28;20037;-79
2022/03/15 03:17:00;;;;;;;10.02;6.00;;;11.90;1.00;;;;;;5033785;28;20105;-79
2022/03/15 03:19:26;;;;;;;8.07;5.95;;;11.90;1.00;;;;;;5017021;28;20529;-79
2022/03/15 03:21:52;;;;;;;8.52;6.18;;;11.80;1.00;;;;;;5033317;28;20045;-79
2022/03/15 03:24:21;;;;;;;6.88;5.43;;;11.80;1.00;;;;;;5033903;28;20052;-79
2022/03/15 03:26:47;;;;;;;7.80;5.88;;;11.70;1.00;;;;;;5033844;28;20025;-79
2022/03/15 03:29:13;;;;;;;10.43;5.82;;;11.70;1.00;;;;;;5034123;28;20076;-79
2022/03/15 03:31:43;;;;;;;8.50;6.00;;;11.60;1.00;;;;;;5034308;28;20028;-79
2022/03/15 03:34:10;;;;;;;8.55;5.45;;;11.70;1.00;;;;;;5033277;28;20457;-79
2022/03/15 03:36:36;;;;;;;8.45;5.78;;;11.60;1.00;;;;;;5033660;28;20026;-79
2022/03/15 03:39:04;;;;;;;6.47;5.80;;;11.60;1.00;;;;;;5033750;28;20026;-79
2022/03/15 03:41:30;;;;;;;7.22;5.80;;;11.60;1.00;;;;;;5033313;28;20029;-79
2022/03/15 03:43:55;;;;;;;6.10;5.50;;;12.10;1.00;;;;;;5033664;28;20033;-80
2022/03/15 03:46:21;;;;;;;7.57;5.90;;;12.00;1.00;;;;;;5033612;28;20029;-79
2022/03/15 03:48:47;;;;;;;7.85;6.13;;;11.60;1.00;;;;;;5033242;28;20080;-79
2022/03/15 03:51:13;;;;;;;9.38;6.35;;;11.70;1.00;;;;;;5033643;28;20025;-80
2022/03/15 03:53:39;;;;;;;6.57;5.90;;;11.70;1.00;;;;;;5033466;28;22071;-79
2022/03/15 03:56:05;;;;;;;8.15;5.68;;;11.80;1.00;;;;;;5033376;28;20025;-79
2022/03/15 03:58:30;;;;;;;8.45;5.88;;;11.80;1.00;;;;;;5033653;28;20520;-79
2022/03/15 04:00:56;;;;;;;10.32;5.97;;;11.80;1.00;;;;;;5032378;28;20106;-78
2022/03/15 04:03:24;;;;;;;8.23;5.60;;;11.80;1.00;;;;;;5032904;28;20026;-79
2022/03/15 04:05:51;;;;;;;8.15;5.78;;;11.80;1.00;;;;;;5033071;28;20061;-79
2022/03/15 04:08:17;;;;;;;7.15;5.60;;;11.80;1.00;;;;;;5017026;28;20076;-77
2022/03/15 04:10:46;;;;;;;7.63;5.60;;;11.80;1.00;;;;;;5033378;28;20018;-79
2022/03/15 04:13:16;;;;;;;7.03;5.05;;;11.80;1.00;;;;;;5032607;28;20406;-80
2022/03/15 04:15:42;;;;;;;8.27;5.60;;;11.80;1.00;;;;;;5032867;28;20036;-80
2022/03/15 04:18:07;;;;;;;5.40;4.82;;;11.80;1.00;;;;;;5032459;28;20045;-79
2022/03/15 04:20:33;;;;;;;8.23;5.68;;;11.80;1.00;;;;;;5015373;28;20022;-79
2022/03/15 04:22:58;;;;;;;7.00;4.97;;;11.80;1.00;;;;;;5032633;28;20053;-79
2022/03/15 04:25:25;;;;;;;9.23;5.43;;;11.90;1.00;;;;;;5032783;28;20021;-79
2022/03/15 04:27:56;;;;;;;8.63;5.05;;;11.80;1.00;;;;;;5032692;28;20481;-79
2022/03/15 04:30:22;;;;;;;5.60;4.63;;;11.80;1.00;;;;;;5032078;28;20026;-79
2022/03/15 04:32:48;;;;;;;8.15;5.22;;;11.80;1.00;;;;;;5032365;28;20033;-79
2022/03/15 04:35:14;;;;;;;5.18;4.57;;;12.20;1.00;;;;;;5032561;28;20414;-79
2022/03/15 04:37:39;;;;;;;7.28;4.60;;;11.70;1.00;;;;;;5032747;28;20492;-79
2022/03/15 04:40:07;;;;;;;7.13;4.93;;;11.70;1.00;;;;;;5032393;28;20039;-79
2022/03/15 04:42:34;;;;;;;6.30;4.85;;;11.80;1.00;;;;;;5032524;28;20021;-80
2022/03/15 04:44:59;;;;;;;5.38;4.60;;;11.70;1.00;;;;;;5031840;28;20401;-78
2022/03/15 04:47:25;;;;;;;10.52;4.90;;;11.70;1.00;;;;;;5032022;28;20025;-79
2022/03/15 04:49:51;;;;;;;5.78;4.40;;;11.70;1.00;;;;;;5033062;28;20425;-79
2022/03/15 04:52:17;;;;;;;6.95;4.53;;;11.70;1.00;;;;;;5032230;28;20033;-80
2022/03/15 04:54:43;;;;;;;6.07;4.63;;;11.70;1.00;;;;;;5031526;28;20117;-79
2022/03/15 04:57:09;;;;;;;6.50;4.75;;;11.70;1.00;;;;;;5031904;28;20408;-79
2022/03/15 04:59:35;;;;;;;6.80;4.82;;;11.70;1.00;;;;;;5031751;28;20032;-80
2022/03/15 05:02:00;;;;;;;7.55;4.57;;;12.00;1.00;;;;;;5032060;28;20389;-79
2022/03/15 05:04:26;;;;;;;8.25;4.95;;;11.60;1.00;;;;;;5015051;28;20083;-79
2022/03/15 05:06:51;;;;;;;6.13;4.38;;;11.60;1.00;;;;;;5031634;28;20096;-79
2022/03/15 05:09:17;;;;;;;7.22;4.25;;;11.90;1.00;;;;;;5031703;28;20116;-79
2022/03/15 05:11:46;;;;;;;4.88;4.13;;;11.70;1.00;;;;;;5031899;28;20029;-79
2022/03/15 05:14:13;;;;;;;6.05;4.13;;;11.60;1.00;;;;;;5031168;28;20052;-80
2022/03/15 05:16:39;;;;;;;5.78;3.60;;;11.70;1.00;;;;;;5032086;28;20029;-79
2022/03/15 05:19:05;;;;;;;4.20;3.47;;;11.80;1.00;;;;;;5031783;28;20029;-79
2022/03/15 05:21:30;;;;;;;5.88;3.78;;;11.80;1.00;;;;;;5031777;28;20017;-79
2022/03/15 05:23:56;;;;;;;6.32;3.92;;;11.70;1.00;;;;;;5030928;28;20175;-80
2022/03/15 05:26:22;;;;;;;4.90;3.53;;;11.80;1.00;;;;;;5031692;28;20021;-79
2022/03/15 05:28:49;;;;;;;9.02;3.47;;;11.80;1.00;;;;;;5031781;28;20056;-79
2022/03/15 05:31:16;;;;;;;7.78;3.80;;;11.80;1.00;;;;;;5031589;28;20029;-80
2022/03/15 05:33:43;;;;;;;5.60;3.78;;;12.00;1.00;;;;;;5031442;28;20036;-80
2022/03/15 05:36:08;;;;;;;5.50;4.10;;;11.70;1.00;;;;;;5031578;28;20029;-79
2022/03/15 05:38:34;;;;;;;4.63;3.55;;;11.70;1.00;;;;;;5031443;28;20155;-80
2022/03/15 05:40:59;;;;;;;5.32;3.60;;;11.70;1.00;;;;;;5031372;28;20068;-80
2022/03/15 05:43:25;;;;;;;4.95;3.38;;;11.80;1.00;;;;;;5031061;28;20028;-79
2022/03/15 05:45:51;;;;;;;5.72;3.80;;;11.90;1.00;;;;;;5031095;28;20034;-79
2022/03/15 05:48:17;;;;;;;5.00;3.30;;;11.80;1.00;;;;;;5030870;28;20068;-79
2022/03/15 05:50:43;;;;;;;5.25;3.30;;;12.20;1.00;;;;;;5031177;28;20030;-79
2022/03/15 05:53:09;;;;;;;4.38;3.60;;;12.10;1.00;;;;;;5031094;28;20417;-78
2022/03/15 05:55:35;;;;;;;5.35;3.83;;;11.90;1.00;;;;;;5031356;28;20036;-80
2022/03/15 05:58:03;;;;;;;4.40;3.30;;;11.90;1.00;;;;;;5030885;28;20080;-79
2022/03/15 06:00:29;;;;;;;7.25;3.28;;;12.00;1.00;;;;;;5030931;28;20497;-79
2022/03/15 06:02:55;;;;;;;4.60;2.75;;;12.00;1.00;;;;;;5031083;28;20025;-80
2022/03/15 06:05:21;;;;;;;4.28;3.00;;;12.00;1.00;;;;;;5030711;28;20503;-78
2022/03/15 06:07:48;;;;;;;6.22;3.17;;;12.00;1.00;;;;;;5031848;28;20030;-80
2022/03/15 06:10:16;;;;;;;4.28;3.03;;;12.40;1.00;;;;;;5030388;28;20497;-80
2022/03/15 06:12:43;;;;;;;4.53;2.92;;;12.10;1.00;;;;;;5030164;28;20397;-80
2022/03/15 06:15:09;;;;;;;4.28;3.15;;;12.00;1.00;;;;;;5031064;28;20048;-80
2022/03/15 06:17:56;;;;;;;3.42;2.80;;;12.00;1.00;;;;;;5031144;28;20053;-81
2022/03/15 06:20:23;;;;;;;3.78;2.67;;;12.10;1.00;;;;;;5015415;28;20045;-80
2022/03/15 06:22:49;;;;;;;3.17;2.80;;;12.10;1.00;;;;;;5031229;28;20053;-80
2022/03/15 06:25:15;;;;;;;3.05;2.67;;;12.10;1.00;;;;;;5030325;28;20033;-81
2022/03/15 06:27:41;;;;;;;5.07;2.92;;;12.10;1.00;;;;;;5030935;28;20028;-80
2022/03/15 06:30:08;;;;;;;4.97;3.00;;;12.10;1.00;;;;;;5030342;28;20036;-81
2022/03/15 06:32:34;;;;;;;5.70;2.70;;;12.10;1.00;;;;;;5030660;28;20025;-79
2022/03/15 06:35:06;;;;;;;5.13;2.85;;;12.10;1.00;;;;;;5030949;28;20042;-81
2022/03/15 06:37:32;;;;;;;3.45;2.47;;;12.10;1.00;;;;;;5029528;28;20018;-80
2022/03/15 06:39:57;;;;;;;3.72;2.75;;;12.00;1.00;;;;;;5030115;28;20087;-79
2022/03/15 06:42:23;;;;;;;2.95;2.65;;;12.50;1.00;;;;;;5030518;28;20072;-80
2022/03/15 06:44:49;;;;;;;4.70;2.85;;;12.20;1.00;;;;;;5034394;28;20030;-79
2022/03/15 06:47:15;;;;;;;4.32;2.67;;;12.10;1.00;;;;;;5034647;28;20482;-81
2022/03/15 06:49:41;;;;;;;4.32;2.80;;;12.40;1.00;;;;;;5034940;28;20478;-80
2022/03/15 06:52:09;;;;;;;6.20;2.90;;;12.10;1.00;;;;;;5034144;28;20076;-84
2022/03/15 06:54:35;;;;;;;3.83;2.67;;;12.10;1.00;;;;;;5033738;28;20025;-80
2022/03/15 06:57:00;;;;;;;3.97;2.50;;;12.10;1.00;;;;;;5034431;28;20132;-80
2022/03/15 06:59:26;;;;;;;4.15;3.13;;;12.40;1.00;;;;;;5033894;28;20053;-80
2022/03/15 07:01:52;;;;;;;3.95;2.75;;;12.10;1.00;;;;;;5034565;28;20024;-80
2022/03/15 07:04:18;;;;;;;4.85;2.40;;;12.20;1.00;;;;;;5033875;28;20112;-79
2022/03/15 07:06:44;;;;;;;4.15;3.20;;;12.30;1.00;;;;;;5033903;28;20030;-80
2022/03/15 07:09:13;;;;;;;4.63;2.42;;;12.20;1.00;;;;;;5033641;28;20033;-80
2022/03/15 07:11:39;;;;;;;4.70;2.78;;;12.20;1.00;;;;;;5034612;28;20031;-81
2022/03/15 07:14:06;;;;;;;3.28;2.78;;;12.30;1.00;;;;;;5034023;28;20037;-80
2022/03/15 07:16:32;;;;;;;5.97;2.95;;;12.30;1.00;;;;;;5034434;28;20041;-79
2022/03/15 07:18:58;;;;;;;4.93;2.90;;;12.30;1.00;;;;;;5033927;28;20033;-81
2022/03/15 07:21:24;;;;;;;4.32;2.88;;;12.20;1.00;;;;;;5033442;28;20030;-81
2022/03/15 07:23:49;;;;;;;4.05;2.90;;;12.20;1.00;;;;;;5033185;28;20164;-81
2022/03/15 07:26:15;;;;;;;4.28;2.53;;;12.60;1.00;;;;;;5033675;28;20033;-81
2022/03/15 07:28:41;;;;;;;4.80;2.50;;;12.20;1.00;;;;;;5029774;28;20010;-81
2022/03/15 07:31:06;;;;;;;4.93;2.72;;;12.30;1.00;;;;;;5028385;28;20047;-81
2022/03/15 07:33:32;;;;;;;4.32;2.80;;;12.30;1.00;;;;;;5032273;28;20175;-81
2022/03/15 07:36:02;;;;;;;3.95;2.58;;;12.30;1.00;;;;;;5033122;28;20026;-81
2022/03/15 07:38:28;;;;;;;3.05;2.65;;;12.20;1.00;;;;;;5033398;28;20021;-81
2022/03/15 07:40:54;;;;;;;4.53;2.97;;;12.20;1.00;;;;;;5033473;28;20033;-81
2022/03/15 07:43:23;;;;;;;3.63;2.80;;;12.20;1.00;;;;;;5024440;28;20445;-86
2022/03/15 07:45:49;;;;;;;4.30;2.90;;;12.40;1.00;;;;;;5032213;28;20044;-85
2022/03/15 07:48:16;;;;;;;4.25;3.22;;;12.30;1.00;;;;;;5033723;28;20076;-89
2022/03/15 07:50:42;;;;;;;5.07;2.75;;;12.40;1.00;;;;;;5016949;28;20466;-85
2022/03/15 07:53:07;;;;;;;3.40;2.63;;;12.40;1.00;;;;;;5032937;28;20057;-85
2022/03/15 07:55:34;;;;;;;7.22;5.95;;;12.40;1.00;;;;;;5032451;28;20679;-85
2022/03/15 07:58:00;;;;;;;5.97;4.60;;;12.50;1.00;;;;;;5033386;28;20061;-85
2022/03/15 08:00:26;;;;;;;3.42;3.10;;;12.40;1.00;;;;;;5033286;28;20029;-85
2022/03/15 08:02:52;;;;;;;4.05;3.20;;;12.40;1.00;;;;;;5032683;28;20021;-85
2022/03/15 08:05:18;;;;;;;5.85;3.03;;;12.40;1.00;;;;;;4999493;28;20567;-85
2022/03/15 08:07:44;;;;;;;4.57;3.10;;;12.40;1.00;;;;;;5032933;28;20553;-85
2022/03/15 08:10:10;;;;;;;4.63;2.65;;;12.40;1.00;;;;;;5016028;28;20141;-85
2022/03/15 08:12:37;;;;;;;5.03;2.80;;;12.50;1.00;;;;;;5032608;28;20041;-84
2022/03/15 08:15:04;;;;;;;2.85;2.50;;;12.50;1.00;;;;;;5033235;28;20120;-85
2022/03/15 08:17:29;;;;;;;4.93;2.80;;;12.50;1.00;;;;;;5032546;28;20409;-85
2022/03/15 08:19:57;;;;;;;3.72;2.58;;;12.50;1.00;;;;;;5032846;28;20036;-85
2022/03/15 08:22:24;;;;;;;3.05;2.58;;;12.60;1.00;;;;;;5013805;28;20084;-85
2022/03/15 08:24:49;;;;;;;5.25;3.35;;;12.60;1.00;;;;;;5032956;28;20414;-85
2022/03/15 08:27:15;;;;;;;3.25;2.67;;;12.70;1.00;;;;;;5032615;28;20032;-85
2022/03/15 08:29:41;;;;;;;3.22;2.55;;;12.70;1.00;;;;;;5032847;28;20555;-85
2022/03/15 08:32:07;;;;;;;3.55;2.50;;;12.70;1.00;;;;;;5014718;28;20103;-85
2022/03/15 08:34:33;;;;;;;4.80;2.58;;;12.70;1.00;;;;;;5033149;28;20073;-85
2022/03/15 08:36:58;;;;;;;3.13;2.75;;;12.80;1.00;;;;;;5015413;28;20462;-85
2022/03/15 08:39:24;;;;;;;4.15;2.58;;;12.80;1.00;;;;;;5032039;28;20108;-85
2022/03/15 08:41:53;;;;;;;2.63;2.38;;;12.70;1.00;;;;;;5032649;28;20437;-85
2022/03/15 08:44:19;;;;;;;4.88;2.30;;;12.70;1.00;;;;;;5016285;28;20032;-85
2022/03/15 08:46:49;;;;;;;4.10;2.50;;;12.80;1.00;;;;;;5032508;28;20026;-86
2022/03/15 08:49:16;;;;;;;5.07;2.28;;;12.80;1.00;;;;;;5015895;28;20025;-86
2022/03/15 08:51:43;;;;;;;3.95;2.55;;;12.70;1.00;;;;;;5031624;28;20032;-85
2022/03/15 08:54:09;;;;;;;4.22;2.60;;;12.70;1.00;;;;;;5031734;28;20037;-85
2022/03/15 08:56:35;;;;;;;6.47;3.05;;;12.80;1.00;;;;;;5031905;28;20029;-85
2022/03/15 08:59:02;;;;;;;4.38;2.33;;;12.80;1.00;;;;;;5032112;28;20025;-85
2022/03/15 09:01:27;;;;;;;5.68;2.65;;;12.90;1.00;;;;;;5032162;28;20032;-85
2022/03/15 09:03:53;;;;;;;2.95;2.47;;;12.90;1.00;;;;;;5032157;28;20026;-85
2022/03/15 09:06:18;;;;;;;4.68;2.65;;;12.90;1.00;;;;;;5030986;28;20033;-85
2022/03/15 09:08:45;;;;;;;4.45;2.53;;;12.80;1.00;;;;;;5032480;28;20388;-85
2022/03/15 09:11:11;;;;;;;2.95;2.33;;;12.90;1.00;;;;;;5031843;28;20033;-85
2022/03/15 09:13:37;;;;;;;5.25;3.28;;;12.90;1.00;;;;;;5032246;28;20512;-85
2022/03/15 09:16:05;;;;;;;5.70;2.65;;;12.80;1.00;;;;;;5031266;28;20037;-85
2022/03/15 09:18:31;;;;;;;5.63;2.60;;;12.90;1.00;;;;;;5014855;28;20036;-85
2022/03/15 09:20:57;;;;;;;4.65;2.55;;;12.90;1.00;;;;;;5031427;28;20030;-85
2022/03/15 09:23:23;;;;;;;3.80;2.80;;;13.00;1.00;;;;;;5030809;28;20056;-85
2022/03/15 09:25:49;;;;;;;6.97;5.03;;;13.10;1.00;;;;;;5032142;28;20543;-85
2022/03/15 09:28:16;;;;;;;4.15;3.65;;;13.10;1.00;;;;;;5031280;28;20064;-85
2022/03/15 09:30:46;;;;;;;3.80;2.72;;;13.10;1.00;;;;;;5031166;28;20390;-85
2022/03/15 09:33:12;;;;;;;2.80;2.50;;;13.20;1.00;;;;;;5031450;28;20037;-84
2022/03/15 09:35:40;;;;;;;4.90;2.60;;;13.10;1.00;;;;;;5030861;28;20038;-85
2022/03/15 09:38:07;;;;;;;5.55;2.80;;;13.30;1.00;;;;;;5031130;28;20029;-85
2022/03/15 09:40:32;;;;;;;6.93;3.00;;;13.40;1.00;;;;;;5031619;28;20037;-85
2022/03/15 09:43:01;;;;;;;3.95;2.60;;;13.40;1.00;;;;;;5031412;28;20041;-84
2022/03/15 09:45:31;;;;;;;5.20;2.50;;;13.40;1.00;;;;;;5030713;28;20075;-85
2022/03/15 09:47:58;;;;;;;5.47;2.67;;;13.20;1.00;;;;;;5030660;28;20041;-85
2022/03/15 09:50:25;;;;;;;4.13;2.50;;;13.20;1.00;;;;;;5031370;28;20516;-85
2022/03/15 09:52:55;;;;;;;5.47;3.60;;;13.10;1.00;;;;;;5031513;28;20108;-85
2022/03/15 09:55:21;;;;;;;5.00;2.10;;;13.10;1.00;;;;;;5037086;28;20620;-84
2022/03/15 09:57:47;;;;;;;3.67;2.42;;;13.10;1.00;;;;;;5037570;28;20033;-85
2022/03/15 10:00:16;;;;;;;4.53;2.50;;;13.20;1.00;;;;;;5045393;28;20048;-85
2022/03/15 10:02:44;;;;;;;4.38;2.70;;;13.10;1.00;;;;;;5030412;28;20112;-85
2022/03/15 10:05:11;;;;;;;2.97;2.35;;;13.20;1.00;;;;;;5036305;28;20127;-85
2022/03/15 10:07:37;;;;;;;5.30;2.75;;;13.10;1.00;;;;;;5032273;28;20021;-86
2022/03/15 10:10:09;;;;;;;2.78;2.40;;;13.10;1.00;;;;;;5026883;28;20041;-86
2022/03/15 10:12:35;;;;;;;3.40;2.30;;;13.10;1.00;;;;;;5029138;28;20498;-85
2022/03/15 10:15:15;;;;;;;2.95;2.45;;;13.30;1.00;;;;;;5030664;28;20075;-85
2022/03/15 10:17:53;;;;;;;4.45;2.58;;;13.40;1.00;;;;;;5030757;28;20104;-85
2022/03/15 10:20:21;;;;;;;7.22;2.63;;;13.40;1.00;;;;;;5019076;28;20480;-85
2022/03/15 10:23:02;;;;;;;4.63;2.40;;;13.30;1.00;;;;;;5031322;28;20049;-86
2022/03/15 10:25:30;;;;;;;3.10;2.38;;;13.30;1.00;;;;;;5034984;28;20038;-86
2022/03/15 10:27:58;;;;;;;4.97;2.78;;;13.40;1.00;;;;;;5035084;28;20029;-87
2022/03/15 10:30:30;;;;;;;5.25;2.40;;;13.40;1.00;;;;;;5034594;28;20044;-85
2022/03/15 10:32:56;;;;;;;2.83;2.47;;;13.40;1.00;;;;;;5034671;28;20033;-85
2022/03/15 10:35:24;;;;;;;3.38;2.40;;;13.40;1.00;;;;;;5034550;28;20033;-85
2022/03/15 10:37:51;;;;;;;3.92;2.63;;;13.40;1.00;;;;;;5035119;28;20087;-85
2022/03/15 10:40:17;;;;;;;5.43;2.65;;;13.50;1.00;;;;;;5034268;28;20030;-85
2022/03/15 10:42:46;;;;;;;5.82;2.50;;;13.50;1.00;;;;;;5034107;28;20065;-85
2022/03/15 10:45:22;;;;;;;3.40;2.40;;;13.50;1.00;;;;;;5034272;28;20026;-85
2022/03/15 10:47:53;;;;;;;5.43;2.47;;;13.70;1.00;;;;;;5034370;28;20029;-85
2022/03/15 10:50:20;;;;;;;4.53;2.80;;;13.70;1.00;;;;;;5019099;28;20030;-85
2022/03/15 10:52:47;;;;;;;6.00;2.83;;;13.90;1.00;;;;;;5030394;28;20371;-84
2022/03/15 10:55:19;;;;;;;3.28;2.50;;;14.00;1.00;;;;;;5017532;28;20037;-84
2022/03/15 10:57:45;;;;;;;4.38;2.67;;;14.30;1.00;;;;;;5033936;28;20028;-85
2022/03/15 11:00:12;;;;;;;3.15;2.63;;;14.10;1.00;;;;;;5017673;28;20441;-84
2022/03/15 11:02:44;;;;;;;3.97;2.70;;;14.30;1.00;;;;;;5033350;28;20084;-85
2022/03/15 11:05:11;;;;;;;3.30;3.00;;;14.40;1.00;;;;;;5016565;28;20898;-84
2022/03/15 11:07:42;;;;;;;3.70;2.60;;;14.50;1.00;;;;;;5034360;28;20053;-85
2022/03/15 11:10:09;;;;;;;3.78;2.42;;;14.50;1.00;;;;;;5034062;28;20026;-85
2022/03/15 11:12:35;;;;;;;3.38;2.38;;;14.70;1.00;;;;;;5033571;28;20029;-85
2022/03/15 11:15:01;;;;;;;3.20;2.90;;;14.70;1.00;;;;;;5033266;28;20125;-85
2022/03/15 11:17:27;;;;;;;3.60;2.70;;;14.70;1.00;;;;;;5034198;28;20022;-85
2022/03/15 11:19:58;;;;;;;7.15;3.15;;;14.90;1.00;;;;;;5034088;28;20041;-85
2022/03/15 11:22:34;;;;;;;4.00;2.53;;;15.00;1.00;;;;;;5033016;28;20091;-84
2022/03/15 11:25:18;;;;;;;3.83;2.80;;;15.10;1.00;;;;;;5033931;28;20037;-85
2022/03/15 11:27:47;;;;;;;5.38;2.80;;;15.40;1.00;;;;;;5033525;28;20088;-84
2022/03/15 11:30:17;;;;;;;2.90;2.50;;;15.40;1.00;;;;;;5032969;28;20061;-85
2022/03/15 11:32:43;;;;;;;3.63;2.88;;;15.80;1.00;;;;;;5033990;28;20116;-84
2022/03/15 11:35:11;;;;;;;3.10;2.80;;;15.90;1.00;;;;;;5033630;28;20087;-86
2022/03/15 11:37:38;;;;;;;4.43;3.13;;;15.90;1.00;;;;;;5033945;28;20112;-85
2022/03/15 11:40:06;;;;;;;7.18;2.90;;;16.20;1.00;;;;;;5033102;28;20466;-85
2022/03/15 11:42:34;;;;;;;5.70;3.25;;;16.10;1.00;;;;;;5033090;28;20551;-84
2022/03/15 11:45:16;;;;;;;8.85;3.33;;;16.20;1.00;;;;;;5016885;28;20029;-85
2022/03/15 11:48:14;;;;;;;3.47;2.75;;;16.30;1.00;;;;;;5033643;28;20037;-85
2022/03/15 11:51:13;;;;;;;3.78;2.88;;;16.70;1.00;;;;;;5005112;28;20497;-85
2022/03/15 11:53:49;;;;;;;6.72;3.28;;;17.40;1.00;;;;;;5019279;28;20068;-85
2022/03/15 11:56:30;;;;;;;3.30;2.95;;;17.20;1.00;;;;;;5033267;28;20029;-84
2022/03/15 11:58:58;;;;;;;4.57;3.17;;;16.40;1.00;;;;;;5029637;28;20052;-85
2022/03/15 12:01:24;;;;;;;4.78;3.10;;;16.70;1.00;;;;;;5032286;28;20029;-86
2022/03/15 12:03:57;;;;;;;3.92;3.33;;;16.80;1.00;;;;;;5033500;28;20025;-85
2022/03/15 12:06:25;;;;;;;3.97;3.10;;;17.10;1.00;;;;;;5032829;28;20021;-85
2022/03/15 12:08:57;;;;;;;3.63;2.70;;;18.00;1.00;;;;;;5032689;28;20017;-85
2022/03/15 12:11:34;;;;;;;5.75;3.00;;;19.20;1.00;;;;;;5017539;28;20034;-85
2022/03/15 12:14:13;;;;;;;3.90;3.17;;;19.90;1.00;;;;;;5032706;28;20394;-86
2022/03/15 12:16:47;;;;;;;5.32;3.10;;;20.10;1.00;;;;;;5032587;28;20028;-85
2022/03/15 12:19:30;;;;;;;4.20;3.25;;;21.00;1.00;;;;;;5032659;28;20033;-85
2022/03/15 12:21:59;;;;;;;3.35;3.05;;;21.20;1.00;;;;;;5032470;28;20022;-85
2022/03/15 12:24:35;;;;;;;4.22;3.03;;;21.90;1.00;;;;;;5016395;28;20071;-86
2022/03/15 12:27:06;;;;;;;4.82;3.13;;;22.50;1.00;;;;;;5032375;28;20031;-86
2022/03/15 12:29:32;;;;;;;3.33;3.00;;;23.00;1.00;;;;;;5032535;28;20034;-85
2022/03/15 12:32:13;;;;;;;3.45;3.00;;;21.60;1.00;;;;;;5032676;28;20075;-85
2022/03/15 12:34:43;;;;;;;5.05;3.53;;;21.70;1.00;;;;;;5032181;28;20034;-85
2022/03/15 12:37:10;;;;;;;3.70;3.22;;;22.20;1.00;;;;;;5032176;28;20029;-85
2022/03/15 12:39:36;;;;;;;3.42;3.13;;;21.60;1.00;;;;;;5032078;28;20026;-86
2022/03/15 12:42:12;;;;;;;5.57;3.47;;;20.70;1.00;;;;;;5031109;28;20072;-85
2022/03/15 12:44:39;;;;;;;4.10;3.30;;;20.30;1.00;;;;;;5032728;28;20556;-85
2022/03/15 12:47:06;;;;;;;4.65;3.40;;;20.40;1.00;;;;;;5032464;28;20034;-85
2022/03/15 12:49:31;;;;;;;4.07;3.10;;;20.50;1.00;;;;;;5030712;28;20113;-85
2022/03/15 12:51:57;;;;;;;5.50;3.15;;;20.50;1.00;;;;;;5032314;28;20486;-86
2022/03/15 12:54:25;;;;;;;5.50;3.00;;;21.10;1.00;;;;;;5031845;28;20122;-85
2022/03/15 12:56:52;;;;;;;4.25;3.20;;;20.90;1.00;;;;;;5031615;28;20057;-86
2022/03/15 12:59:20;;;;;;;5.65;3.28;;;20.20;1.00;;;;;;5032135;28;20037;-85